Time;durP1;ratioP1;P1;durP2;ratioP2;P2;SDS_P1;SDS_P2;PMS_P1;PMS_P2;Temp;Humidity;BMP_temperature;BMP_pressure;BME280_temperature;BME280_humidity;BME280_pressure;Samples;Min_cycle;Max_cycle;Signal;HPM_P1;HPM_P2
2020/12/07 00:00:40;;;;;;;7.85;5.95;;;3.50;99.90;;;;;;4970297;28;20560;-73
2020/12/07 00:03:06;;;;;;;8.00;5.65;;;3.40;99.90;;;;;;4970123;28;20023;-73
2020/12/07 00:05:32;;;;;;;8.00;5.35;;;3.40;99.90;;;;;;4969749;28;20034;-71
2020/12/07 00:08:00;;;;;;;7.90;5.60;;;3.40;99.90;;;;;;4970029;28;20026;-75
2020/12/07 00:10:25;;;;;;;;;;;3.50;99.90;;;;;;4970419;28;20106;-74
2020/12/07 00:12:51;;;;;;;9.68;5.55;;;3.40;99.90;;;;;;4984886;28;19957;-73
2020/12/07 00:15:17;;;;;;;8.80;5.90;;;3.40;99.90;;;;;;4969561;28;20074;-74
2020/12/07 00:17:42;;;;;;;7.50;5.05;;;3.40;99.90;;;;;;4968099;28;20027;-74
2020/12/07 00:20:09;;;;;;;9.20;6.20;;;3.40;99.90;;;;;;4969932;28;20034;-74
2020/12/07 00:22:35;;;;;;;7.78;5.50;;;3.50;99.90;;;;;;4969974;28;20022;-74
2020/12/07 00:25:01;;;;;;;6.78;5.18;;;3.50;99.90;;;;;;4968623;28;20363;-73
2020/12/07 00:27:29;;;;;;;8.20;5.32;;;3.50;99.90;;;;;;4968154;28;20417;-75
2020/12/07 00:29:56;;;;;;;6.90;5.20;;;3.60;99.90;;;;;;4969606;28;20496;-73
2020/12/07 00:32:22;;;;;;;6.95;5.10;;;3.50;99.90;;;;;;4969442;28;20042;-74
2020/12/07 00:34:48;;;;;;;6.53;4.97;;;3.60;99.90;;;;;;4984117;28;20106;-73
2020/12/07 00:37:15;;;;;;;8.30;5.80;;;3.60;99.90;;;;;;4969279;28;20023;-74
2020/12/07 00:39:40;;;;;;;7.72;5.43;;;3.60;99.90;;;;;;4968022;28;20081;-74
2020/12/07 00:42:09;;;;;;;8.18;5.05;;;3.50;99.90;;;;;;4969471;28;20058;-73
2020/12/07 00:44:35;;;;;;;7.20;5.28;;;3.50;99.90;;;;;;4968548;28;20553;-74
2020/12/07 00:47:01;;;;;;;7.80;5.60;;;3.40;99.90;;;;;;4969303;28;20449;-74
2020/12/07 00:49:27;;;;;;;6.68;4.53;;;3.50;99.90;;;;;;4968971;28;20425;-74
2020/12/07 00:51:52;;;;;;;7.00;5.15;;;3.40;99.90;;;;;;4969413;28;20042;-74
2020/12/07 00:54:18;;;;;;;7.50;4.75;;;3.50;99.90;;;;;;4967331;28;20061;-73
2020/12/07 00:56:44;;;;;;;6.78;4.72;;;3.40;99.90;;;;;;4968858;28;20022;-75
2020/12/07 00:59:10;;;;;;;6.72;4.80;;;3.50;99.90;;;;;;4968979;28;20030;-72
2020/12/07 01:01:37;;;;;;;6.40;4.85;;;3.50;99.90;;;;;;4968815;28;20501;-74
2020/12/07 01:04:04;;;;;;;6.90;4.70;;;3.40;99.90;;;;;;4968377;28;20539;-74
2020/12/07 01:06:31;;;;;;;8.38;4.90;;;3.50;99.90;;;;;;4968770;28;20030;-74
2020/12/07 01:08:57;;;;;;;7.55;4.93;;;3.50;99.90;;;;;;4968744;28;20683;-75
2020/12/07 01:11:23;;;;;;;7.13;4.75;;;3.50;99.90;;;;;;4983759;28;20030;-74
2020/12/07 01:13:49;;;;;;;9.70;5.20;;;3.50;99.90;;;;;;4968431;28;20027;-74
2020/12/07 01:16:22;;;;;;;6.20;4.45;;;3.50;99.90;;;;;;4967169;28;20078;-74
2020/12/07 01:18:49;;;;;;;6.57;4.70;;;3.50;99.90;;;;;;4967397;28;20023;-73
2020/12/07 01:21:15;;;;;;;6.30;4.70;;;3.40;99.90;;;;;;4968639;28;20043;-73
2020/12/07 01:23:42;;;;;;;6.93;4.53;;;3.40;99.90;;;;;;4967382;28;20286;-74
2020/12/07 01:26:08;;;;;;;5.85;4.47;;;3.30;99.90;;;;;;4967088;28;20085;-74
2020/12/07 01:28:34;;;;;;;8.00;4.53;;;3.20;99.90;;;;;;4968801;28;20031;-72
2020/12/07 01:31:01;;;;;;;8.05;4.80;;;3.10;99.90;;;;;;4967347;28;20039;-73
2020/12/07 01:33:26;;;;;;;6.32;4.47;;;3.10;99.90;;;;;;4968761;28;20082;-73
2020/12/07 01:35:52;;;;;;;5.85;4.32;;;3.10;99.90;;;;;;4968767;28;20023;-74
2020/12/07 01:38:18;;;;;;;7.85;4.78;;;2.90;99.90;;;;;;4970309;28;20030;-73
2020/12/07 01:40:43;;;;;;;6.57;4.82;;;2.80;99.90;;;;;;4969448;28;20030;-74
2020/12/07 01:43:09;;;;;;;5.93;4.53;;;2.80;99.90;;;;;;4970332;28;20031;-72
2020/12/07 01:45:35;;;;;;;7.50;4.93;;;2.70;99.90;;;;;;4970443;28;20117;-73
2020/12/07 01:48:00;;;;;;;8.60;5.50;;;2.80;99.90;;;;;;4970354;28;20066;-73
2020/12/07 01:50:27;;;;;;;6.65;4.63;;;2.80;99.90;;;;;;4970518;28;20018;-73
2020/12/07 01:52:53;;;;;;;6.68;4.50;;;2.80;99.90;;;;;;4969249;28;20065;-74
2020/12/07 01:55:19;;;;;;;9.15;4.50;;;2.90;99.90;;;;;;4970391;28;20031;-73
2020/12/07 01:57:45;;;;;;;6.25;4.20;;;3.00;99.90;;;;;;4972196;28;20031;-74
2020/12/07 02:00:11;;;;;;;6.30;4.20;;;2.90;99.90;;;;;;4973905;28;20030;-73
2020/12/07 02:02:37;;;;;;;8.40;4.13;;;2.90;99.90;;;;;;4973886;28;20026;-73
2020/12/07 02:05:02;;;;;;;5.70;4.20;;;2.90;99.90;;;;;;4974092;28;20018;-74
2020/12/07 02:07:28;;;;;;;7.65;4.38;;;2.90;99.90;;;;;;4974382;28;20106;-73
2020/12/07 02:09:54;;;;;;;7.32;4.22;;;2.90;99.90;;;;;;4974172;28;20038;-72
2020/12/07 02:12:19;;;;;;;6.45;4.57;;;2.90;99.90;;;;;;4973093;28;20023;-72
2020/12/07 02:14:45;;;;;;;5.78;4.18;;;2.90;99.90;;;;;;4973863;28;20041;-74
2020/12/07 02:17:11;;;;;;;6.65;4.13;;;2.90;99.90;;;;;;4973997;28;20478;-73
2020/12/07 02:19:36;;;;;;;6.60;4.85;;;2.90;99.90;;;;;;4973714;28;20393;-73
2020/12/07 02:22:02;;;;;;;5.78;4.10;;;2.90;99.90;;;;;;4973516;28;20544;-73
2020/12/07 02:24:28;;;;;;;6.15;3.85;;;2.90;99.90;;;;;;4972032;28;20121;-73
2020/12/07 02:26:53;;;;;;;7.72;4.20;;;2.90;99.90;;;;;;4973594;28;20035;-74
2020/12/07 02:29:19;;;;;;;5.20;3.92;;;2.80;99.90;;;;;;4973416;28;20481;-73
2020/12/07 02:31:45;;;;;;;7.60;3.95;;;2.90;99.90;;;;;;4973465;28;20050;-74
2020/12/07 02:34:10;;;;;;;7.32;4.00;;;3.00;99.90;;;;;;4973141;28;20394;-74
2020/12/07 02:36:36;;;;;;;4.95;3.78;;;3.10;99.90;;;;;;4973469;28;20466;-73
2020/12/07 02:39:02;;;;;;;5.40;3.88;;;3.10;99.90;;;;;;4972027;28;20053;-75
2020/12/07 02:41:27;;;;;;;6.35;3.95;;;3.20;99.90;;;;;;4973158;28;20062;-73
2020/12/07 02:43:53;;;;;;;6.43;3.70;;;3.10;99.90;;;;;;4973192;28;20421;-73
2020/12/07 02:46:19;;;;;;;5.63;3.78;;;3.10;99.90;;;;;;4972879;28;20053;-75
2020/12/07 02:48:44;;;;;;;5.25;3.88;;;3.10;99.90;;;;;;4973198;28;20026;-74
2020/12/07 02:51:10;;;;;;;5.10;3.70;;;3.20;99.90;;;;;;4987943;28;20123;-73
2020/12/07 02:53:36;;;;;;;6.75;3.47;;;3.20;99.90;;;;;;4972288;28;20023;-74
2020/12/07 02:56:01;;;;;;;5.32;3.60;;;3.10;99.90;;;;;;4953733;28;20038;-74
2020/12/07 02:58:27;;;;;;;5.00;3.47;;;3.10;99.90;;;;;;4953765;29;20031;-74
2020/12/07 03:00:53;;;;;;;4.20;3.13;;;3.10;99.90;;;;;;4953791;29;20042;-74
2020/12/07 03:03:18;;;;;;;5.40;3.50;;;3.20;99.90;;;;;;4954399;28;20378;-74
2020/12/07 03:05:44;;;;;;;5.07;3.58;;;3.20;99.90;;;;;;4954291;29;20031;-74
2020/12/07 03:08:09;;;;;;;3.78;2.78;;;3.20;99.90;;;;;;4953908;28;20028;-73
2020/12/07 03:10:35;;;;;;;4.55;3.38;;;3.20;99.90;;;;;;4954094;28;20026;-74
2020/12/07 03:13:01;;;;;;;4.57;3.30;;;3.20;99.90;;;;;;4954351;29;20050;-74
2020/12/07 03:15:26;;;;;;;4.72;3.38;;;3.20;99.90;;;;;;4953968;28;20511;-75
2020/12/07 03:17:52;;;;;;;4.88;3.10;;;3.30;99.90;;;;;;4954372;29;20062;-73
2020/12/07 03:20:17;;;;;;;3.90;2.92;;;3.30;99.90;;;;;;4954370;28;20049;-74
2020/12/07 03:22:43;;;;;;;3.72;2.67;;;3.30;99.90;;;;;;4954080;29;20074;-74
2020/12/07 03:25:09;;;;;;;4.32;2.95;;;3.30;99.90;;;;;;4954091;29;20019;-74
2020/12/07 03:27:34;;;;;;;4.28;2.90;;;3.30;99.90;;;;;;4954027;29;20023;-74
2020/12/07 03:30:00;;;;;;;4.50;3.30;;;3.20;99.90;;;;;;4954018;29;20027;-73
2020/12/07 03:32:25;;;;;;;4.30;3.15;;;3.20;99.90;;;;;;4953804;28;20027;-73
2020/12/07 03:34:51;;;;;;;4.85;3.22;;;3.30;99.90;;;;;;4953883;29;20027;-74
2020/12/07 03:37:17;;;;;;;5.72;3.08;;;3.30;99.90;;;;;;4952529;28;20441;-74
2020/12/07 03:39:42;;;;;;;3.70;2.50;;;3.40;99.90;;;;;;4952514;28;20122;-74
2020/12/07 03:42:08;;;;;;;3.90;2.80;;;3.40;99.90;;;;;;4953638;29;20031;-74
2020/12/07 03:44:34;;;;;;;4.43;2.88;;;3.40;99.90;;;;;;4953570;29;20027;-73
2020/12/07 03:47:00;;;;;;;5.70;3.00;;;3.40;99.90;;;;;;4953562;29;20179;-74
2020/12/07 03:49:26;;;;;;;4.82;2.67;;;3.50;99.90;;;;;;4953523;28;20023;-74
2020/12/07 03:51:52;;;;;;;3.78;2.58;;;3.50;99.90;;;;;;4953578;28;20019;-74
2020/12/07 03:54:17;;;;;;;3.97;2.95;;;3.60;99.90;;;;;;4953414;28;20438;-73
2020/12/07 03:56:43;;;;;;;5.95;3.38;;;3.60;99.90;;;;;;4952211;29;20115;-74
2020/12/07 03:59:08;;;;;;;4.68;2.97;;;3.70;99.90;;;;;;4953451;29;20027;-73
2020/12/07 04:01:36;;;;;;;3.50;2.53;;;3.80;99.90;;;;;;4952943;29;20110;-73
2020/12/07 04:04:05;;;;;;;4.45;2.97;;;3.70;99.90;;;;;;4966184;28;20050;-73
2020/12/07 04:06:40;;;;;;;4.30;2.80;;;3.80;99.90;;;;;;4969794;28;20034;-75
2020/12/07 04:09:07;;;;;;;4.82;2.75;;;3.80;99.90;;;;;;4969842;28;20413;-74
2020/12/07 04:11:33;;;;;;;3.67;2.80;;;3.70;99.90;;;;;;4984865;28;20019;-74
2020/12/07 04:13:59;;;;;;;3.97;2.47;;;3.80;99.90;;;;;;4969662;28;20367;-73
2020/12/07 04:16:30;;;;;;;4.60;2.92;;;3.90;99.90;;;;;;4969714;28;20027;-74
2020/12/07 04:18:56;;;;;;;5.18;3.13;;;4.00;99.90;;;;;;4969656;28;20058;-74
2020/12/07 04:21:22;;;;;;;4.32;3.00;;;3.90;99.90;;;;;;4969309;28;20394;-75
2020/12/07 04:23:47;;;;;;;5.53;3.30;;;3.50;99.90;;;;;;4969766;28;20116;-75
2020/12/07 04:26:13;;;;;;;5.07;3.05;;;3.30;99.90;;;;;;4969511;28;20109;-75
2020/12/07 04:28:38;;;;;;;5.82;3.40;;;3.40;99.90;;;;;;4969675;28;20209;-74
2020/12/07 04:31:04;;;;;;;5.63;2.88;;;3.30;99.90;;;;;;4969772;28;20034;-73
2020/12/07 04:33:30;;;;;;;6.28;3.33;;;3.40;99.90;;;;;;4969436;28;20062;-74
2020/12/07 04:35:55;;;;;;;4.95;3.13;;;3.30;99.90;;;;;;4969234;28;20030;-75
2020/12/07 04:38:21;;;;;;;6.75;3.58;;;3.40;99.90;;;;;;4984768;28;20030;-74
2020/12/07 04:40:47;;;;;;;5.05;3.20;;;3.50;99.90;;;;;;4969441;28;20054;-74
2020/12/07 04:43:16;;;;;;;6.30;3.53;;;3.60;99.90;;;;;;4969421;28;20048;-73
2020/12/07 04:45:42;;;;;;;5.35;3.10;;;3.50;99.90;;;;;;4969189;28;20023;-74
2020/12/07 04:48:10;;;;;;;5.15;3.40;;;3.60;99.90;;;;;;4969379;28;20023;-75
2020/12/07 04:50:36;;;;;;;7.38;3.30;;;3.60;99.90;;;;;;4969466;28;20026;-74
2020/12/07 04:53:02;;;;;;;4.95;3.40;;;3.70;99.90;;;;;;4969483;28;20142;-74
2020/12/07 04:55:28;;;;;;;6.28;3.40;;;3.80;99.90;;;;;;4967707;28;20113;-75
2020/12/07 04:57:55;;;;;;;4.63;3.20;;;3.90;99.90;;;;;;4969425;28;20030;-75
2020/12/07 05:00:23;;;;;;;6.10;3.63;;;3.90;99.90;;;;;;4969300;28;20033;-74
2020/12/07 05:02:56;;;;;;;6.55;3.60;;;3.90;99.90;;;;;;4967918;28;20046;-74
2020/12/07 05:05:22;;;;;;;7.07;4.05;;;3.80;99.90;;;;;;4968881;28;20026;-74
2020/12/07 05:07:50;;;;;;;4.50;3.20;;;3.70;99.90;;;;;;4969205;28;20379;-73
2020/12/07 05:10:20;;;;;;;;;;;3.80;99.90;;;;;;4968008;28;20026;-74
2020/12/07 05:12:50;;;;;;;8.00;3.92;;;3.80;99.90;;;;;;4969012;28;19913;-74
2020/12/07 05:15:16;;;;;;;7.90;3.92;;;3.70;99.90;;;;;;4983423;28;20019;-74
2020/12/07 05:17:44;;;;;;;5.95;4.20;;;3.80;99.90;;;;;;4983765;28;20023;-74
2020/12/07 05:20:10;;;;;;;9.27;3.95;;;3.70;99.90;;;;;;4968959;28;20538;-74
2020/12/07 05:22:39;;;;;;;5.07;3.80;;;3.80;99.90;;;;;;4968791;28;20030;-75
2020/12/07 05:25:06;;;;;;;6.30;4.28;;;3.80;99.90;;;;;;4968632;28;20042;-75
2020/12/07 05:27:33;;;;;;;8.98;4.22;;;3.60;99.90;;;;;;4968872;28;20053;-73
2020/12/07 05:30:11;;;;;;;6.78;4.45;;;3.70;99.90;;;;;;4968843;28;20031;-73
2020/12/07 05:32:38;;;;;;;8.05;4.50;;;3.70;99.90;;;;;;4972281;28;20034;-74
2020/12/07 05:35:06;;;;;;;9.80;4.25;;;3.60;99.90;;;;;;4972471;28;20046;-73
2020/12/07 05:37:36;;;;;;;6.15;4.07;;;3.80;99.90;;;;;;4972878;28;20561;-74
2020/12/07 05:40:05;;;;;;;5.78;3.95;;;3.90;99.90;;;;;;4972642;28;20030;-72
2020/12/07 05:42:32;;;;;;;6.72;3.58;;;3.90;99.90;;;;;;4971440;28;20038;-73
2020/12/07 05:44:59;;;;;;;7.65;4.43;;;3.90;99.90;;;;;;4972892;28;20055;-74
2020/12/07 05:47:26;;;;;;;5.68;4.32;;;3.90;99.90;;;;;;4972915;28;20034;-75
2020/12/07 05:49:55;;;;;;;8.77;3.88;;;3.90;99.90;;;;;;4972623;28;20031;-73
2020/12/07 05:52:38;;;;;;;7.70;4.40;;;3.90;99.90;;;;;;4971564;28;20037;-73
2020/12/07 05:55:04;;;;;;;7.40;4.63;;;3.90;99.90;;;;;;4970084;28;20027;-74
2020/12/07 05:57:31;;;;;;;6.05;4.00;;;3.80;99.90;;;;;;4972470;28;20061;-74
2020/12/07 06:00:05;;;;;;;11.95;4.85;;;3.70;99.90;;;;;;4971053;28;20707;-74
2020/12/07 06:02:33;;;;;;;6.78;4.80;;;3.70;99.90;;;;;;4970922;28;20122;-73
2020/12/07 06:05:02;;;;;;;10.70;5.38;;;3.70;99.90;;;;;;4972062;28;20023;-74
2020/12/07 06:07:34;;;;;;;7.07;4.97;;;3.70;99.90;;;;;;4970885;28;20610;-74
2020/12/07 06:10:02;;;;;;;11.52;5.72;;;3.70;99.90;;;;;;4972053;28;20110;-73
2020/12/07 06:12:36;;;;;;;9.70;5.53;;;3.70;99.90;;;;;;4972527;28;20023;-74
2020/12/07 06:15:03;;;;;;;10.13;5.78;;;3.60;99.90;;;;;;4973839;28;20488;-75
2020/12/07 06:17:32;;;;;;;8.25;5.60;;;3.50;99.90;;;;;;4973878;28;20027;-74
2020/12/07 06:19:58;;;;;;;10.52;6.55;;;3.50;99.90;;;;;;4972544;28;20033;-74
2020/12/07 06:22:23;;;;;;;9.05;6.22;;;3.50;99.90;;;;;;4973769;28;20027;-74
2020/12/07 06:24:52;;;;;;;10.45;6.35;;;3.50;99.90;;;;;;4972237;28;20505;-74
2020/12/07 06:27:19;;;;;;;10.57;7.03;;;3.30;99.90;;;;;;4974038;28;20022;-74
2020/12/07 06:30:05;;;;;;;10.32;7.43;;;3.30;99.90;;;;;;4973551;28;20041;-74
2020/12/07 06:32:44;;;;;;;10.63;6.82;;;3.20;99.90;;;;;;4973464;28;20019;-74
2020/12/07 06:35:11;;;;;;;11.52;7.20;;;3.10;99.90;;;;;;4972248;28;20027;-74
2020/12/07 06:37:42;;;;;;;13.40;7.32;;;3.10;99.90;;;;;;4973530;28;20114;-74
2020/12/07 06:40:08;;;;;;;10.35;7.25;;;3.10;99.90;;;;;;4973697;28;20027;-73
2020/12/07 06:42:40;;;;;;;11.73;7.95;;;3.00;99.90;;;;;;4972974;28;20034;-73
2020/12/07 06:45:09;;;;;;;12.50;7.35;;;3.00;99.90;;;;;;4973467;28;20050;-73
2020/12/07 06:47:38;;;;;;;14.07;8.75;;;2.90;99.90;;;;;;4973371;28;20421;-74
2020/12/07 06:50:12;;;;;;;13.10;8.60;;;3.00;99.90;;;;;;4971868;28;20114;-74
2020/12/07 06:52:41;;;;;;;11.80;7.90;;;3.00;99.90;;;;;;4971975;28;20716;-74
2020/12/07 06:55:11;;;;;;;11.18;7.05;;;3.00;99.90;;;;;;4973061;28;20062;-73
2020/12/07 06:57:46;;;;;;;9.77;6.78;;;3.10;99.90;;;;;;4973243;28;20019;-74
2020/12/07 07:00:18;;;;;;;7.80;6.00;;;3.10;99.90;;;;;;4971557;28;20382;-74
2020/12/07 07:03:06;;;;;;;8.40;6.10;;;3.00;99.90;;;;;;4972630;28;20026;-74
2020/12/07 07:05:31;;;;;;;9.55;6.50;;;3.00;99.90;;;;;;4970955;28;20113;-74
2020/12/07 07:07:58;;;;;;;9.20;5.85;;;3.00;99.90;;;;;;4971882;28;20106;-74
2020/12/07 07:10:24;;;;;;;8.32;5.90;;;3.00;99.90;;;;;;4971517;28;20019;-74
2020/12/07 07:12:50;;;;;;;8.18;5.85;;;3.00;99.90;;;;;;4971680;28;20027;-74
2020/12/07 07:15:17;;;;;;;11.90;7.20;;;3.00;99.90;;;;;;4972415;28;20022;-75
2020/12/07 07:17:44;;;;;;;11.25;7.00;;;3.10;99.90;;;;;;4971277;28;20023;-75
2020/12/07 07:20:11;;;;;;;;;;;3.10;99.90;;;;;;4973200;28;20074;-75
2020/12/07 07:22:43;;;;;;;12.15;6.93;;;3.10;99.90;;;;;;4972554;28;19906;-73
2020/12/07 07:30:24;;;;;;;11.77;6.85;;;3.00;99.90;;;;;;4972892;28;20042;-73
2020/12/07 07:32:51;;;;;;;8.57;5.80;;;2.90;99.90;;;;;;4972595;28;20087;-74
2020/12/07 07:35:19;;;;;;;9.57;6.40;;;3.00;99.90;;;;;;4972395;28;20493;-74
2020/12/07 07:37:45;;;;;;;9.25;6.32;;;2.90;99.90;;;;;;4972535;28;20031;-75
2020/12/07 07:40:16;;;;;;;8.68;6.13;;;2.70;99.90;;;;;;4972301;28;20228;-73
2020/12/07 07:42:46;;;;;;;9.07;6.20;;;2.60;99.90;;;;;;4972497;28;20034;-74
2020/12/07 07:45:13;;;;;;;8.77;6.47;;;2.60;99.90;;;;;;4972344;28;20027;-75
2020/12/07 07:48:25;;;;;;;11.70;7.85;;;2.50;99.90;;;;;;4970950;28;20033;-74
2020/12/07 07:50:58;;;;;;;10.40;5.97;;;2.60;99.90;;;;;;4973999;28;20045;-74
2020/12/07 08:15:41;;;;;;;9.07;5.38;;;3.60;99.90;;;;;;4971657;28;20437;-74
2020/12/07 08:18:07;;;;;;;9.27;5.10;;;3.60;99.90;;;;;;4971692;28;20026;-74
2020/12/07 08:20:36;;;;;;;8.50;5.43;;;3.70;99.90;;;;;;4970066;28;20536;-74
2020/12/07 08:23:07;;;;;;;8.23;5.03;;;3.70;99.90;;;;;;4971452;28;20019;-74
2020/12/07 08:25:50;;;;;;;8.73;5.18;;;3.80;99.90;;;;;;4971355;28;20069;-74
2020/12/07 08:28:37;;;;;;;8.65;5.10;;;3.70;99.90;;;;;;4971441;28;20031;-76
2020/12/07 08:31:13;;;;;;;9.07;4.55;;;3.80;99.90;;;;;;4952281;28;20031;-74
2020/12/07 08:34:02;;;;;;;6.23;4.70;;;3.90;99.90;;;;;;4969597;28;20027;-75
2020/12/07 08:36:30;;;;;;;9.70;5.00;;;3.90;99.90;;;;;;4948964;29;20035;-74
2020/12/07 08:38:56;;;;;;;7.70;5.10;;;4.10;99.90;;;;;;4948712;29;20090;-74
2020/12/07 08:41:24;;;;;;;8.20;4.93;;;4.30;99.90;;;;;;4950115;29;20035;-72
2020/12/07 08:43:55;;;;;;;6.43;4.80;;;4.50;99.90;;;;;;4949607;28;20023;-74
2020/12/07 08:46:26;;;;;;;6.30;4.75;;;4.50;99.90;;;;;;4949686;29;20104;-74
2020/12/07 08:48:52;;;;;;;10.48;5.20;;;4.60;99.90;;;;;;4962835;28;20033;-74
2020/12/07 08:51:26;;;;;;;8.57;4.80;;;4.60;99.90;;;;;;4969298;28;20065;-74
2020/12/07 08:53:52;;;;;;;10.45;5.68;;;4.60;99.90;;;;;;4966523;28;20038;-74
2020/12/07 08:56:18;;;;;;;9.30;5.78;;;4.60;99.90;;;;;;4949722;28;20035;-73
2020/12/07 08:58:44;;;;;;;8.68;5.22;;;4.40;99.90;;;;;;4949753;28;20665;-74
2020/12/07 09:01:11;;;;;;;7.38;5.32;;;4.50;99.90;;;;;;4949838;28;20058;-73
2020/12/07 09:03:38;;;;;;;8.95;5.80;;;4.50;99.90;;;;;;4949781;28;20019;-73
2020/12/07 09:06:07;;;;;;;8.05;5.30;;;4.50;99.90;;;;;;4967054;28;20413;-74
2020/12/07 09:08:36;;;;;;;8.70;5.40;;;4.60;99.90;;;;;;4969009;28;20035;-73
2020/12/07 09:11:07;;;;;;;7.65;5.28;;;4.80;99.90;;;;;;4969257;28;20089;-73
2020/12/07 09:13:32;;;;;;;7.13;5.00;;;5.00;99.90;;;;;;4983986;28;20042;-74
2020/12/07 09:15:59;;;;;;;7.05;5.35;;;5.00;99.90;;;;;;4967640;28;20149;-74
2020/12/07 09:18:25;;;;;;;8.73;5.23;;;5.00;99.90;;;;;;4966973;28;20550;-73
2020/12/07 09:20:50;;;;;;;8.93;5.00;;;5.00;99.90;;;;;;4968296;28;20345;-74
2020/12/07 09:23:17;;;;;;;8.25;5.60;;;4.90;99.90;;;;;;4984025;28;20035;-74
2020/12/07 09:25:42;;;;;;;7.40;4.95;;;5.00;99.90;;;;;;4968710;28;20031;-74
2020/12/07 09:28:09;;;;;;;8.00;5.63;;;5.00;99.90;;;;;;4968702;28;20170;-74
2020/12/07 09:30:35;;;;;;;6.93;5.13;;;5.40;99.90;;;;;;4968887;28;20034;-74
2020/12/07 09:33:01;;;;;;;9.18;5.60;;;5.50;99.90;;;;;;4968605;28;20031;-74
2020/12/07 09:35:26;;;;;;;7.13;5.25;;;5.40;99.90;;;;;;4968448;28;20021;-73
2020/12/07 09:37:52;;;;;;;9.02;4.63;;;5.80;99.90;;;;;;4968590;28;20489;-72
2020/12/07 09:40:18;;;;;;;6.22;4.53;;;6.10;99.90;;;;;;4968694;28;20035;-74
2020/12/07 09:42:43;;;;;;;5.80;3.90;;;6.90;99.90;;;;;;4968611;28;20027;-73
2020/12/07 09:45:10;;;;;;;16.25;9.90;;;7.00;99.90;;;;;;4968501;28;20049;-73
2020/12/07 09:47:36;;;;;;;5.90;4.40;;;7.10;99.90;;;;;;4968602;28;20034;-74
2020/12/07 09:50:07;;;;;;;6.45;4.57;;;7.20;99.90;;;;;;4968570;28;20026;-74
2020/12/07 09:52:33;;;;;;;5.78;4.20;;;6.90;99.90;;;;;;4968522;28;20022;-73
2020/12/07 09:54:59;;;;;;;5.30;3.60;;;6.50;99.90;;;;;;4968437;28;20023;-75
2020/12/07 09:57:25;;;;;;;7.53;5.20;;;6.40;99.90;;;;;;4968635;28;20027;-73
2020/12/07 09:59:51;;;;;;;6.88;4.88;;;5.90;99.90;;;;;;4968365;28;20031;-74
2020/12/07 10:02:17;;;;;;;6.85;4.60;;;5.50;99.90;;;;;;4968512;28;20495;-75
2020/12/07 10:04:44;;;;;;;7.80;5.07;;;5.10;99.90;;;;;;4968356;28;20466;-74
2020/12/07 10:07:10;;;;;;;7.37;5.40;;;4.90;99.90;;;;;;4968766;28;20026;-74
2020/12/07 10:09:36;;;;;;;7.65;5.63;;;4.70;99.90;;;;;;4968409;28;20337;-74
2020/12/07 10:12:02;;;;;;;7.47;5.35;;;4.60;99.90;;;;;;4968498;28;20030;-74
2020/12/07 10:14:28;;;;;;;7.45;5.80;;;4.60;99.90;;;;;;4968158;28;20061;-75
2020/12/07 10:16:53;;;;;;;6.95;5.30;;;4.90;99.90;;;;;;4972946;28;20027;-74
2020/12/07 10:19:19;;;;;;;8.23;5.55;;;5.10;99.90;;;;;;4951736;28;20070;-75
2020/12/07 10:21:44;;;;;;;7.32;5.20;;;5.20;99.90;;;;;;4952659;28;20035;-74
2020/12/07 10:24:10;;;;;;;7.88;5.38;;;5.40;99.90;;;;;;4952148;28;20364;-75
2020/12/07 10:26:36;;;;;;;7.35;5.40;;;5.50;99.90;;;;;;4952371;28;20402;-74
2020/12/07 10:29:02;;;;;;;7.22;5.18;;;5.60;99.90;;;;;;4952490;28;20106;-74
2020/12/07 10:31:27;;;;;;;7.20;5.20;;;5.50;99.90;;;;;;4952284;28;20026;-75
2020/12/07 10:33:53;;;;;;;6.75;5.40;;;5.50;99.90;;;;;;4967050;28;20027;-74
2020/12/07 10:36:20;;;;;;;5.95;4.90;;;5.50;99.90;;;;;;4966822;28;20031;-75
2020/12/07 10:38:47;;;;;;;7.97;5.22;;;5.40;99.90;;;;;;4952103;28;20031;-74
2020/12/07 10:41:14;;;;;;;7.38;5.50;;;5.30;99.90;;;;;;4952047;28;20467;-75
2020/12/07 10:43:41;;;;;;;8.23;5.75;;;5.30;99.90;;;;;;4952170;28;20483;-74
2020/12/07 10:46:07;;;;;;;8.77;5.40;;;5.20;99.90;;;;;;4951799;28;20638;-74
2020/12/07 10:48:33;;;;;;;7.15;5.28;;;5.10;99.90;;;;;;4952047;28;20031;-74
2020/12/07 10:50:59;;;;;;;8.45;5.82;;;5.00;99.90;;;;;;4951928;28;20053;-74
2020/12/07 10:53:24;;;;;;;10.00;5.57;;;4.90;99.90;;;;;;4951952;28;20035;-75
2020/12/07 10:55:51;;;;;;;7.32;5.50;;;4.90;99.90;;;;;;4951535;28;20027;-75
2020/12/07 10:58:17;;;;;;;6.90;5.60;;;4.90;99.90;;;;;;4951766;28;20027;-75
2020/12/07 11:00:42;;;;;;;7.25;5.20;;;4.80;99.90;;;;;;4950623;28;20110;-74
2020/12/07 11:03:08;;;;;;;7.38;5.75;;;4.70;99.90;;;;;;4966273;28;20058;-75
2020/12/07 11:05:34;;;;;;;7.65;5.75;;;4.70;99.90;;;;;;4951524;28;20105;-75
2020/12/07 11:08:01;;;;;;;7.18;5.38;;;4.70;99.90;;;;;;4950209;28;20102;-74
2020/12/07 11:10:26;;;;;;;8.10;5.10;;;4.50;99.90;;;;;;4951942;28;20022;-75
2020/12/07 11:13:03;;;;;;;10.05;5.65;;;4.30;99.90;;;;;;4951648;28;20023;-75
2020/12/07 11:15:29;;;;;;;8.32;5.50;;;4.30;99.90;;;;;;4951330;28;20503;-74
2020/12/07 11:17:54;;;;;;;8.73;5.03;;;4.30;99.90;;;;;;4984840;28;20033;-73
2020/12/07 11:20:20;;;;;;;11.65;5.15;;;4.40;99.90;;;;;;4970693;28;20101;-75
2020/12/07 11:22:46;;;;;;;8.57;4.63;;;4.50;99.90;;;;;;4970669;28;20364;-75
2020/12/07 11:25:12;;;;;;;6.38;4.55;;;4.50;99.90;;;;;;4969854;28;20401;-75
2020/12/07 11:27:38;;;;;;;6.22;4.75;;;4.80;99.90;;;;;;4970707;28;20474;-75
2020/12/07 11:30:04;;;;;;;6.97;4.53;;;5.00;99.90;;;;;;4970311;28;20066;-75
2020/12/07 11:32:30;;;;;;;5.53;3.65;;;5.30;99.90;;;;;;4970455;28;20030;-74
2020/12/07 11:34:56;;;;;;;4.05;2.88;;;5.50;99.90;;;;;;4969992;28;20015;-74
2020/12/07 11:37:22;;;;;;;4.60;3.30;;;5.30;99.90;;;;;;4970599;28;20019;-74
2020/12/07 11:43:05;;;;;;;5.40;3.33;;;5.10;99.90;;;;;;4970834;28;20585;-75
2020/12/07 11:44:59;;;;;;;4.60;3.10;;;5.00;99.90;;;;;;4965921;28;20049;-74
2020/12/07 11:47:25;;;;;;;3.92;2.50;;;5.00;99.90;;;;;;4969766;28;20386;-75
2020/12/07 11:49:50;;;;;;;4.03;2.55;;;4.80;99.90;;;;;;4968943;28;20103;-74
2020/12/07 11:52:16;;;;;;;4.90;3.10;;;4.60;99.90;;;;;;4984060;28;20023;-74
2020/12/07 11:54:42;;;;;;;6.03;3.40;;;4.50;99.90;;;;;;4969406;28;20027;-74
2020/12/07 11:57:07;;;;;;;8.70;3.58;;;4.40;99.90;;;;;;4969911;28;20026;-76
2020/12/07 11:59:33;;;;;;;6.18;3.60;;;4.50;99.90;;;;;;4969220;28;20038;-75
2020/12/07 12:01:59;;;;;;;6.35;3.22;;;4.60;99.90;;;;;;4969748;28;20030;-75
2020/12/07 12:04:25;;;;;;;5.35;3.08;;;4.50;99.90;;;;;;4967393;28;20509;-75
2020/12/07 12:06:50;;;;;;;3.92;2.50;;;4.40;99.90;;;;;;4969684;28;20027;-74
2020/12/07 12:09:16;;;;;;;3.97;2.45;;;4.40;99.90;;;;;;4969430;28;20022;-75
2020/12/07 12:11:45;;;;;;;3.97;2.63;;;4.40;99.90;;;;;;4968271;28;20046;-75
2020/12/07 12:14:11;;;;;;;4.28;2.50;;;4.40;99.90;;;;;;4968546;28;20478;-75
2020/12/07 12:16:39;;;;;;;4.40;2.60;;;4.30;99.90;;;;;;4967895;28;20034;-75
2020/12/07 12:19:10;;;;;;;7.35;3.22;;;4.40;99.90;;;;;;4969666;28;20057;-75
2020/12/07 12:21:37;;;;;;;4.30;2.60;;;4.40;99.90;;;;;;4969398;28;20034;-76
2020/12/07 12:24:05;;;;;;;4.30;2.80;;;4.50;99.90;;;;;;4969491;28;20505;-74
2020/12/07 12:26:35;;;;;;;3.70;2.60;;;4.60;99.90;;;;;;4969619;28;20027;-76
2020/12/07 12:29:02;;;;;;;3.85;2.63;;;4.60;99.90;;;;;;4969555;28;20030;-75
2020/12/07 12:31:28;;;;;;;3.65;2.58;;;4.50;99.90;;;;;;4969229;28;20034;-74
2020/12/07 12:33:55;;;;;;;6.15;2.58;;;4.50;99.90;;;;;;4969295;28;20026;-75
2020/12/07 12:36:23;;;;;;;3.63;2.50;;;4.40;99.90;;;;;;4969175;28;20057;-75
2020/12/07 12:38:50;;;;;;;4.80;2.47;;;4.50;99.90;;;;;;4969210;28;20027;-75
2020/12/07 12:41:16;;;;;;;4.47;2.80;;;4.50;99.90;;;;;;4983703;28;20030;-76
2020/12/07 12:43:42;;;;;;;4.90;3.00;;;4.60;99.90;;;;;;4969159;28;20894;-76
2020/12/07 12:46:08;;;;;;;5.28;3.70;;;4.70;99.90;;;;;;4983190;28;20058;-75
2020/12/07 12:48:35;;;;;;;3.83;2.72;;;4.70;99.90;;;;;;4982510;28;20069;-75
2020/12/07 12:51:01;;;;;;;4.90;3.03;;;4.70;99.90;;;;;;4967356;28;20034;-76
2020/12/07 12:53:30;;;;;;;4.80;3.15;;;4.70;99.90;;;;;;4967520;28;20031;-75
2020/12/07 12:55:56;;;;;;;6.38;3.72;;;4.60;99.90;;;;;;4983927;28;20031;-75
2020/12/07 12:58:22;;;;;;;5.10;3.28;;;4.70;99.90;;;;;;4969037;28;20026;-75
2020/12/07 13:00:48;;;;;;;6.85;3.17;;;4.70;99.90;;;;;;4969380;28;20031;-75
2020/12/07 13:03:14;;;;;;;5.97;3.75;;;4.70;99.90;;;;;;4967929;28;20074;-75
2020/12/07 13:05:40;;;;;;;6.30;3.33;;;4.70;99.90;;;;;;4967745;28;20490;-76
2020/12/07 13:08:06;;;;;;;10.27;5.05;;;4.80;99.90;;;;;;4969312;28;20035;-75
2020/12/07 13:10:32;;;;;;;8.32;5.70;;;4.80;99.90;;;;;;4969219;28;20122;-75
2020/12/07 13:12:57;;;;;;;7.43;5.35;;;4.90;99.90;;;;;;4969048;28;20093;-75
2020/12/07 13:15:24;;;;;;;8.27;5.45;;;4.90;99.90;;;;;;4967255;28;20402;-75
2020/12/07 13:17:57;;;;;;;7.97;5.57;;;4.90;99.90;;;;;;4984447;28;20077;-75
2020/12/07 13:20:33;;;;;;;6.78;4.85;;;5.00;99.90;;;;;;4969285;28;20888;-75
2020/12/07 13:23:12;;;;;;;7.68;4.90;;;5.10;99.90;;;;;;4969418;28;20405;-75
2020/12/07 13:25:55;;;;;;;6.45;4.55;;;5.00;99.90;;;;;;4983712;28;20066;-76
2020/12/07 13:28:21;;;;;;;8.50;4.90;;;5.00;99.90;;;;;;4967499;28;20030;-75